sensor_id;sensor_type;location;lat;lon;timestamp;pressure;altitude;pressure_sealevel;temperature;humidity
75290;BME280;63883;48.996;20.804;2022-11-15T00:00:49;97050.13;;;1.61;89.01
75290;BME280;63883;48.996;20.804;2022-11-15T00:03:25;97047.69;;;1.65;88.51
75290;BME280;63883;48.996;20.804;2022-11-15T00:05:51;97045.94;;;1.61;88.60
75290;BME280;63883;48.996;20.804;2022-11-15T00:08:16;97046.00;;;1.64;88.43
75290;BME280;63883;48.996;20.804;2022-11-15T00:10:42;97044.38;;;1.69;88.78
75290;BME280;63883;48.996;20.804;2022-11-15T00:13:12;97040.28;;;1.73;88.28
75290;BME280;63883;48.996;20.804;2022-11-15T00:15:39;97042.84;;;1.77;88.27
75290;BME280;63883;48.996;20.804;2022-11-15T00:18:06;97037.91;;;1.85;87.56
75290;BME280;63883;48.996;20.804;2022-11-15T00:20:37;97039.63;;;1.86;87.44
75290;BME280;63883;48.996;20.804;2022-11-15T00:23:03;97048.78;;;1.84;87.70
75290;BME280;63883;48.996;20.804;2022-11-15T00:25:30;97032.88;;;1.85;87.25
75290;BME280;63883;48.996;20.804;2022-11-15T00:27:56;97033.72;;;1.84;87.75
75290;BME280;63883;48.996;20.804;2022-11-15T00:30:22;97041.19;;;1.81;87.62
75290;BME280;63883;48.996;20.804;2022-11-15T00:32:49;97025.22;;;1.76;87.64
75290;BME280;63883;48.996;20.804;2022-11-15T00:35:15;97026.00;;;1.72;87.67
75290;BME280;63883;48.996;20.804;2022-11-15T00:37:40;97024.34;;;1.72;87.70
75290;BME280;63883;48.996;20.804;2022-11-15T00:40:07;97026.78;;;1.69;87.80
75290;BME280;63883;48.996;20.804;2022-11-15T00:42:33;97024.25;;;1.68;87.54
75290;BME280;63883;48.996;20.804;2022-11-15T00:44:59;97021.00;;;1.75;87.23
75290;BME280;63883;48.996;20.804;2022-11-15T00:47:24;97022.75;;;1.80;87.05
75290;BME280;63883;48.996;20.804;2022-11-15T00:49:50;97017.72;;;1.79;87.38
75290;BME280;63883;48.996;20.804;2022-11-15T00:52:16;97015.94;;;1.72;86.91
75290;BME280;63883;48.996;20.804;2022-11-15T00:54:41;97020.00;;;1.64;86.93
75290;BME280;63883;48.996;20.804;2022-11-15T00:57:07;97019.06;;;1.55;87.32
75290;BME280;63883;48.996;20.804;2022-11-15T00:59:33;97017.38;;;1.56;87.22
75290;BME280;63883;48.996;20.804;2022-11-15T01:01:58;97005.63;;;1.55;87.18
75290;BME280;63883;48.996;20.804;2022-11-15T01:04:24;97010.66;;;1.55;87.72
75290;BME280;63883;48.996;20.804;2022-11-15T01:06:49;97006.56;;;1.62;86.87
75290;BME280;63883;48.996;20.804;2022-11-15T01:09:15;97007.34;;;1.59;87.55
75290;BME280;63883;48.996;20.804;2022-11-15T01:11:41;96999.84;;;1.61;87.53
75290;BME280;63883;48.996;20.804;2022-11-15T01:14:06;96991.50;;;1.62;87.70
75290;BME280;63883;48.996;20.804;2022-11-15T01:16:32;96993.19;;;1.63;87.32
75290;BME280;63883;48.996;20.804;2022-11-15T01:18:59;96990.66;;;1.63;87.76
75290;BME280;63883;48.996;20.804;2022-11-15T01:21:25;96988.16;;;1.63;87.47
75290;BME280;63883;48.996;20.804;2022-11-15T01:23:54;96980.63;;;1.63;86.45
75290;BME280;63883;48.996;20.804;2022-11-15T01:26:21;96984.00;;;1.66;86.49
75290;BME280;63883;48.996;20.804;2022-11-15T01:28:47;96981.47;;;1.66;86.29
75290;BME280;63883;48.996;20.804;2022-11-15T01:31:16;96983.13;;;1.63;87.00
75290;BME280;63883;48.996;20.804;2022-11-15T01:33:42;96978.97;;;1.65;86.50
75290;BME280;63883;48.996;20.804;2022-11-15T01:36:11;96974.63;;;1.54;86.96
75290;BME280;63883;48.996;20.804;2022-11-15T01:38:38;96968.72;;;1.51;87.03
75290;BME280;63883;48.996;20.804;2022-11-15T01:41:04;96975.41;;;1.52;86.80
75290;BME280;63883;48.996;20.804;2022-11-15T01:43:32;96976.25;;;1.49;87.24
75290;BME280;63883;48.996;20.804;2022-11-15T01:46:29;96967.91;;;1.53;87.15
75290;BME280;63883;48.996;20.804;2022-11-15T01:48:59;96967.16;;;1.58;87.38
75290;BME280;63883;48.996;20.804;2022-11-15T01:51:29;96970.56;;;1.63;87.15
75290;BME280;63883;48.996;20.804;2022-11-15T01:54:01;96966.38;;;1.63;86.52
75290;BME280;63883;48.996;20.804;2022-11-15T01:56:32;96970.50;;;1.60;87.18
75290;BME280;63883;48.996;20.804;2022-11-15T01:59:00;96965.47;;;1.58;87.25
75290;BME280;63883;48.996;20.804;2022-11-15T02:01:28;96965.50;;;1.61;87.00
75290;BME280;63883;48.996;20.804;2022-11-15T02:04:01;96968.19;;;1.72;85.84
75290;BME280;63883;48.996;20.804;2022-11-15T02:06:27;96965.66;;;1.72;86.26
75290;BME280;63883;48.996;20.804;2022-11-15T02:08:54;96964.75;;;1.68;86.45
75290;BME280;63883;48.996;20.804;2022-11-15T02:11:20;96953.94;;;1.74;85.87
75290;BME280;63883;48.996;20.804;2022-11-15T02:13:45;96962.22;;;1.67;86.46
75290;BME280;63883;48.996;20.804;2022-11-15T02:16:35;96964.72;;;1.67;86.68
75290;BME280;63883;48.996;20.804;2022-11-15T02:27:42;96943.69;;;1.60;86.87
75290;BME280;63883;48.996;20.804;2022-11-15T02:33:06;96935.97;;;1.46;87.21
75290;BME280;63883;48.996;20.804;2022-11-15T02:35:57;96936.13;;;1.58;85.88
75290;BME280;63883;48.996;20.804;2022-11-15T02:41:19;96941.00;;;1.46;86.38
75290;BME280;63883;48.996;20.804;2022-11-15T02:43:51;96930.94;;;1.46;86.21
75290;BME280;63883;48.996;20.804;2022-11-15T02:49:29;96923.31;;;1.39;86.94
75290;BME280;63883;48.996;20.804;2022-11-15T02:51:56;96931.72;;;1.41;87.34
75290;BME280;63883;48.996;20.804;2022-11-15T02:54:24;96933.38;;;1.39;86.92
75290;BME280;63883;48.996;20.804;2022-11-15T02:56:56;96924.97;;;1.38;87.05
75290;BME280;63883;48.996;20.804;2022-11-15T03:04:56;96925.81;;;1.39;86.70
75290;BME280;63883;48.996;20.804;2022-11-15T03:07:32;96926.66;;;1.36;86.26
75290;BME280;63883;48.996;20.804;2022-11-15T03:10:06;96930.94;;;1.45;85.68
75290;BME280;63883;48.996;20.804;2022-11-15T03:12:37;96926.84;;;1.50;85.86
75290;BME280;63883;48.996;20.804;2022-11-15T03:15:12;96926.09;;;1.58;86.12
75290;BME280;63883;48.996;20.804;2022-11-15T03:17:49;96931.00;;;1.49;86.93
75290;BME280;63883;48.996;20.804;2022-11-15T03:20:17;96930.06;;;1.44;87.16
75290;BME280;63883;48.996;20.804;2022-11-15T03:22:46;96928.41;;;1.45;87.52
75290;BME280;63883;48.996;20.804;2022-11-15T03:25:19;96930.97;;;1.48;87.69
75290;BME280;63883;48.996;20.804;2022-11-15T03:27:49;96929.34;;;1.50;86.92
75290;BME280;63883;48.996;20.804;2022-11-15T03:30:17;96933.56;;;1.51;87.25
75290;BME280;63883;48.996;20.804;2022-11-15T03:32:49;96924.38;;;1.54;87.07
75290;BME280;63883;48.996;20.804;2022-11-15T03:35:21;96918.47;;;1.51;86.93
75290;BME280;63883;48.996;20.804;2022-11-15T03:37:59;96923.50;;;1.52;86.74
75290;BME280;63883;48.996;20.804;2022-11-15T03:40:36;96916.00;;;1.55;86.92
75290;BME280;63883;48.996;20.804;2022-11-15T03:45:54;96914.31;;;1.54;86.56
75290;BME280;63883;48.996;20.804;2022-11-15T03:48:28;96914.19;;;1.45;86.51
75290;BME280;63883;48.996;20.804;2022-11-15T03:50:55;96915.09;;;1.49;86.33
75290;BME280;63883;48.996;20.804;2022-11-15T03:53:22;96910.88;;;1.48;86.03
75290;BME280;63883;48.996;20.804;2022-11-15T03:55:47;96907.47;;;1.43;86.80
75290;BME280;63883;48.996;20.804;2022-11-15T03:58:13;96907.47;;;1.44;87.06
75290;BME280;63883;48.996;20.804;2022-11-15T04:00:38;96907.56;;;1.50;86.52
75290;BME280;63883;48.996;20.804;2022-11-15T04:03:04;96898.34;;;1.52;86.56
75290;BME280;63883;48.996;20.804;2022-11-15T04:05:30;96897.53;;;1.50;86.13
75290;BME280;63883;48.996;20.804;2022-11-15T04:07:56;96895.84;;;1.52;85.86
75290;BME280;63883;48.996;20.804;2022-11-15T04:10:21;96890.88;;;1.58;85.09
75290;BME280;63883;48.996;20.804;2022-11-15T04:12:47;96884.09;;;1.48;85.59
75290;BME280;63883;48.996;20.804;2022-11-15T04:15:16;96885.69;;;1.43;85.73
75290;BME280;63883;48.996;20.804;2022-11-15T04:18:00;96887.28;;;1.38;85.83
75290;BME280;63883;48.996;20.804;2022-11-15T04:20:28;96874.75;;;1.40;85.79
75290;BME280;63883;48.996;20.804;2022-11-15T04:23:13;96883.06;;;1.34;85.95
75290;BME280;63883;48.996;20.804;2022-11-15T04:26:07;96881.38;;;1.33;85.99
75290;BME280;63883;48.996;20.804;2022-11-15T04:28:35;96882.88;;;1.21;86.28
75290;BME280;63883;48.996;20.804;2022-11-15T04:31:21;96879.47;;;1.17;86.61
75290;BME280;63883;48.996;20.804;2022-11-15T04:33:47;96873.47;;;1.06;87.15
75290;BME280;63883;48.996;20.804;2022-11-15T04:36:13;96878.38;;;0.98;87.62
75290;BME280;63883;48.996;20.804;2022-11-15T04:38:57;96879.13;;;0.93;87.61
75290;BME280;63883;48.996;20.804;2022-11-15T04:41:23;96886.47;;;0.82;87.75
75290;BME280;63883;48.996;20.804;2022-11-15T04:43:49;96877.13;;;0.73;88.37
75290;BME280;63883;48.996;20.804;2022-11-15T04:46:14;96870.53;;;0.80;88.27
75290;BME280;63883;48.996;20.804;2022-11-15T04:48:40;96871.66;;;0.97;87.84
75290;BME280;63883;48.996;20.804;2022-11-15T04:51:06;96876.69;;;0.99;87.14
75290;BME280;63883;48.996;20.804;2022-11-15T04:53:31;96873.41;;;1.03;86.80
75290;BME280;63883;48.996;20.804;2022-11-15T04:55:57;96881.66;;;0.96;87.23
75290;BME280;63883;48.996;20.804;2022-11-15T04:58:23;96864.22;;;1.05;86.84
75290;BME280;63883;48.996;20.804;2022-11-15T05:00:48;96864.28;;;1.09;87.16
75290;BME280;63883;48.996;20.804;2022-11-15T05:03:14;96856.00;;;1.15;87.54
75290;BME280;63883;48.996;20.804;2022-11-15T05:05:58;96858.47;;;1.12;87.77
75290;BME280;63883;48.996;20.804;2022-11-15T05:08:25;96861.78;;;1.09;87.75
75290;BME280;63883;48.996;20.804;2022-11-15T05:10:51;96862.63;;;1.10;87.12
75290;BME280;63883;48.996;20.804;2022-11-15T05:13:17;96851.00;;;1.15;86.89
75290;BME280;63883;48.996;20.804;2022-11-15T05:15:43;96860.28;;;1.22;85.95
75290;BME280;63883;48.996;20.804;2022-11-15T05:18:09;96848.38;;;1.09;86.56
75290;BME280;63883;48.996;20.804;2022-11-15T05:20:34;96850.88;;;1.07;86.92
75290;BME280;63883;48.996;20.804;2022-11-15T05:23:00;96842.38;;;0.98;87.24
75290;BME280;63883;48.996;20.804;2022-11-15T05:25:26;96853.16;;;0.91;87.39
75290;BME280;63883;48.996;20.804;2022-11-15T05:27:52;96844.72;;;0.86;87.48
75290;BME280;63883;48.996;20.804;2022-11-15T05:30:18;96837.06;;;0.79;87.21
75290;BME280;63883;48.996;20.804;2022-11-15T05:32:44;96838.66;;;0.73;88.33
75290;BME280;63883;48.996;20.804;2022-11-15T05:35:15;96836.97;;;0.73;88.77
75290;BME280;63883;48.996;20.804;2022-11-15T05:37:44;96840.44;;;0.78;89.47
75290;BME280;63883;48.996;20.804;2022-11-15T05:40:09;96844.72;;;0.86;89.10
75290;BME280;63883;48.996;20.804;2022-11-15T05:42:35;96841.50;;;0.96;87.58
75290;BME280;63883;48.996;20.804;2022-11-15T05:45:03;96835.66;;;0.97;87.40
75290;BME280;63883;48.996;20.804;2022-11-15T05:47:31;96830.69;;;1.01;87.24
75290;BME280;63883;48.996;20.804;2022-11-15T05:49:58;96840.00;;;1.07;87.17
75290;BME280;63883;48.996;20.804;2022-11-15T05:52:27;96831.47;;;0.97;87.04
75290;BME280;63883;48.996;20.804;2022-11-15T05:54:55;96844.81;;;0.93;87.37
75290;BME280;63883;48.996;20.804;2022-11-15T05:57:22;96842.28;;;0.92;87.79
75290;BME280;63883;48.996;20.804;2022-11-15T05:59:47;96830.63;;;0.97;87.83
75290;BME280;63883;48.996;20.804;2022-11-15T06:02:13;96834.09;;;1.05;86.65
75290;BME280;63883;48.996;20.804;2022-11-15T06:04:39;96835.72;;;1.03;86.36
75290;BME280;63883;48.996;20.804;2022-11-15T06:07:05;96836.66;;;1.08;85.88
75290;BME280;63883;48.996;20.804;2022-11-15T06:09:30;96835.75;;;1.04;86.25
75290;BME280;63883;48.996;20.804;2022-11-15T06:11:56;96840.72;;;1.01;86.78
75290;BME280;63883;48.996;20.804;2022-11-15T06:14:22;96834.97;;;1.07;86.05
75290;BME280;63883;48.996;20.804;2022-11-15T06:16:48;96843.25;;;1.03;86.19
75290;BME280;63883;48.996;20.804;2022-11-15T06:19:13;96840.00;;;1.10;85.96
75290;BME280;63883;48.996;20.804;2022-11-15T06:21:39;96843.34;;;1.07;86.20
75290;BME280;63883;48.996;20.804;2022-11-15T06:24:05;96842.41;;;1.02;87.33
75290;BME280;63883;48.996;20.804;2022-11-15T06:26:31;96842.44;;;1.04;87.69
75290;BME280;63883;48.996;20.804;2022-11-15T06:28:57;96836.69;;;1.11;87.19
75290;BME280;63883;48.996;20.804;2022-11-15T06:31:23;96832.63;;;1.21;85.00
75290;BME280;63883;48.996;20.804;2022-11-15T06:33:48;96835.13;;;1.19;85.44
75290;BME280;63883;48.996;20.804;2022-11-15T06:36:15;96835.19;;;1.22;86.07
75290;BME280;63883;48.996;20.804;2022-11-15T06:38:43;96836.75;;;1.14;85.82
75290;BME280;63883;48.996;20.804;2022-11-15T06:41:10;96832.56;;;1.16;86.26
75290;BME280;63883;48.996;20.804;2022-11-15T06:43:36;96836.75;;;1.17;85.97
75290;BME280;63883;48.996;20.804;2022-11-15T06:46:03;96825.06;;;1.19;85.61
75290;BME280;63883;48.996;20.804;2022-11-15T06:48:30;96823.22;;;1.06;85.58
75290;BME280;63883;48.996;20.804;2022-11-15T06:50:58;96819.84;;;1.04;86.12
75290;BME280;63883;48.996;20.804;2022-11-15T06:53:24;96828.13;;;0.97;86.43
75290;BME280;63883;48.996;20.804;2022-11-15T06:55:50;96827.28;;;0.96;86.07
75290;BME280;63883;48.996;20.804;2022-11-15T06:58:16;96821.59;;;1.08;85.97
75290;BME280;63883;48.996;20.804;2022-11-15T07:00:42;96820.84;;;1.15;86.03
75290;BME280;63883;48.996;20.804;2022-11-15T07:03:08;96828.38;;;1.15;86.85
75290;BME280;63883;48.996;20.804;2022-11-15T07:05:34;96821.66;;;1.14;86.69
75290;BME280;63883;48.996;20.804;2022-11-15T07:08:00;96819.97;;;1.13;86.88
75290;BME280;63883;48.996;20.804;2022-11-15T07:10:26;96823.31;;;1.12;87.28
75290;BME280;63883;48.996;20.804;2022-11-15T07:12:52;96825.03;;;1.16;86.56
75290;BME280;63883;48.996;20.804;2022-11-15T07:15:20;96828.28;;;1.09;85.85
75290;BME280;63883;48.996;20.804;2022-11-15T07:17:46;96829.09;;;1.06;86.67
75290;BME280;63883;48.996;20.804;2022-11-15T07:20:13;96827.34;;;1.02;86.83
75290;BME280;63883;48.996;20.804;2022-11-15T07:22:39;96825.75;;;1.06;86.91
75290;BME280;63883;48.996;20.804;2022-11-15T07:25:05;96825.91;;;1.20;86.28
75290;BME280;63883;48.996;20.804;2022-11-15T07:27:31;96822.63;;;1.25;85.43
75290;BME280;63883;48.996;20.804;2022-11-15T07:29:57;96819.34;;;1.31;86.45
75290;BME280;63883;48.996;20.804;2022-11-15T07:32:22;96819.56;;;1.47;85.79
75290;BME280;63883;48.996;20.804;2022-11-15T07:34:48;96816.22;;;1.47;85.00
75290;BME280;63883;48.996;20.804;2022-11-15T07:37:14;96807.81;;;1.43;84.90
75290;BME280;63883;48.996;20.804;2022-11-15T07:39:40;96807.84;;;1.48;84.73
75290;BME280;63883;48.996;20.804;2022-11-15T07:42:05;96800.19;;;1.39;85.56
75290;BME280;63883;48.996;20.804;2022-11-15T07:44:49;96796.06;;;1.42;86.12
75290;BME280;63883;48.996;20.804;2022-11-15T07:47:15;96801.97;;;1.47;84.70
75290;BME280;63883;48.996;20.804;2022-11-15T07:49:41;96796.97;;;1.49;85.20
75290;BME280;63883;48.996;20.804;2022-11-15T07:52:06;96804.47;;;1.46;84.94
75290;BME280;63883;48.996;20.804;2022-11-15T07:54:32;96806.94;;;1.41;85.87
75290;BME280;63883;48.996;20.804;2022-11-15T07:56:58;96797.66;;;1.36;85.26
75290;BME280;63883;48.996;20.804;2022-11-15T07:59:23;96805.44;;;1.57;84.63
75290;BME280;63883;48.996;20.804;2022-11-15T08:01:49;96795.38;;;1.58;84.52
75290;BME280;63883;48.996;20.804;2022-11-15T08:04:15;96793.03;;;1.71;84.26
75290;BME280;63883;48.996;20.804;2022-11-15T08:06:40;96798.84;;;1.68;84.72
75290;BME280;63883;48.996;20.804;2022-11-15T08:09:06;96798.13;;;1.78;83.74
75290;BME280;63883;48.996;20.804;2022-11-15T08:11:32;96801.56;;;1.88;83.59
75290;BME280;63883;48.996;20.804;2022-11-15T08:13:58;96800.81;;;1.96;84.08
75290;BME280;63883;48.996;20.804;2022-11-15T08:16:23;96793.19;;;1.89;83.88
75290;BME280;63883;48.996;20.804;2022-11-15T08:18:49;96779.91;;;2.02;84.39
75290;BME280;63883;48.996;20.804;2022-11-15T08:21:18;96785.78;;;2.03;84.75
75290;BME280;63883;48.996;20.804;2022-11-15T08:23:44;96780.84;;;2.13;83.75
75290;BME280;63883;48.996;20.804;2022-11-15T08:26:10;96785.94;;;2.19;84.84
75290;BME280;63883;48.996;20.804;2022-11-15T08:28:36;96773.41;;;2.27;82.46
75290;BME280;63883;48.996;20.804;2022-11-15T08:31:03;96771.72;;;2.26;83.16
75290;BME280;63883;48.996;20.804;2022-11-15T08:33:29;96760.91;;;2.39;82.96
75290;BME280;63883;48.996;20.804;2022-11-15T08:35:59;96756.72;;;2.38;82.89
75290;BME280;63883;48.996;20.804;2022-11-15T08:38:26;96750.94;;;2.48;82.15
75290;BME280;63883;48.996;20.804;2022-11-15T08:40:54;96742.63;;;2.63;82.36
75290;BME280;63883;48.996;20.804;2022-11-15T08:43:25;96746.03;;;2.69;81.14
75290;BME280;63883;48.996;20.804;2022-11-15T08:45:51;96742.72;;;2.78;80.97
75290;BME280;63883;48.996;20.804;2022-11-15T08:48:16;96741.06;;;2.83;81.05
75290;BME280;63883;48.996;20.804;2022-11-15T08:50:42;96737.75;;;2.87;81.30
75290;BME280;63883;48.996;20.804;2022-11-15T08:53:09;96734.41;;;2.91;80.77
75290;BME280;63883;48.996;20.804;2022-11-15T08:55:36;96736.91;;;2.90;80.14
75290;BME280;63883;48.996;20.804;2022-11-15T08:58:02;96738.53;;;2.80;80.45
75290;BME280;63883;48.996;20.804;2022-11-15T09:00:28;96736.84;;;2.79;80.50
75290;BME280;63883;48.996;20.804;2022-11-15T09:02:54;96734.28;;;2.74;80.53
75290;BME280;63883;48.996;20.804;2022-11-15T09:05:19;96735.16;;;2.78;79.75
75290;BME280;63883;48.996;20.804;2022-11-15T09:07:45;96731.84;;;2.88;79.91
75290;BME280;63883;48.996;20.804;2022-11-15T09:10:11;96719.28;;;2.91;79.73
75290;BME280;63883;48.996;20.804;2022-11-15T09:12:37;96728.50;;;2.88;81.07
75290;BME280;63883;48.996;20.804;2022-11-15T09:15:03;96722.66;;;2.96;80.97
75290;BME280;63883;48.996;20.804;2022-11-15T09:17:29;96715.16;;;3.08;80.40
75290;BME280;63883;48.996;20.804;2022-11-15T09:19:55;96709.28;;;3.17;79.74
75290;BME280;63883;48.996;20.804;2022-11-15T09:22:21;96708.50;;;3.21;81.18
75290;BME280;63883;48.996;20.804;2022-11-15T09:24:46;96710.19;;;3.30;80.49
75290;BME280;63883;48.996;20.804;2022-11-15T09:27:12;96706.88;;;3.44;80.69
75290;BME280;63883;48.996;20.804;2022-11-15T09:29:38;96701.00;;;3.42;80.49
75290;BME280;63883;48.996;20.804;2022-11-15T09:32:04;96693.41;;;3.39;80.11
75290;BME280;63883;48.996;20.804;2022-11-15T09:34:30;96695.13;;;3.56;79.61
75290;BME280;63883;48.996;20.804;2022-11-15T09:36:56;96680.88;;;3.71;78.44
75290;BME280;63883;48.996;20.804;2022-11-15T09:39:22;96671.59;;;3.76;79.62
75290;BME280;63883;48.996;20.804;2022-11-15T09:47:45;96684.25;;;4.10;78.16
75290;BME280;63883;48.996;20.804;2022-11-15T09:50:22;96663.22;;;4.15;78.40
75290;BME280;63883;48.996;20.804;2022-11-15T09:52:55;96677.47;;;4.25;77.09
75290;BME280;63883;48.996;20.804;2022-11-15T09:55:32;96669.91;;;4.28;77.79
75290;BME280;63883;48.996;20.804;2022-11-15T09:58:50;96680.00;;;4.33;78.02
75290;BME280;63883;48.996;20.804;2022-11-15T10:00:56;96673.25;;;4.46;77.78
75290;BME280;63883;48.996;20.804;2022-11-15T10:03:34;96663.16;;;4.43;77.65
75290;BME280;63883;48.996;20.804;2022-11-15T10:06:02;96653.91;;;4.40;77.25
75290;BME280;63883;48.996;20.804;2022-11-15T10:11:20;96652.25;;;4.18;79.67
75290;BME280;63883;48.996;20.804;2022-11-15T10:13:47;96643.00;;;4.24;80.33
75290;BME280;63883;48.996;20.804;2022-11-15T10:16:39;96648.00;;;4.40;79.25
75290;BME280;63883;48.996;20.804;2022-11-15T10:24:44;96633.72;;;4.28;79.35
75290;BME280;63883;48.996;20.804;2022-11-15T10:27:15;96626.97;;;4.33;80.21
75290;BME280;63883;48.996;20.804;2022-11-15T10:29:50;96636.25;;;4.29;79.48
75290;BME280;63883;48.996;20.804;2022-11-15T10:32:18;96632.91;;;4.24;79.79
75290;BME280;63883;48.996;20.804;2022-11-15T10:34:45;96627.84;;;4.26;80.77
75290;BME280;63883;48.996;20.804;2022-11-15T10:37:10;96616.88;;;4.33;81.28
75290;BME280;63883;48.996;20.804;2022-11-15T10:39:36;96617.72;;;4.46;81.13
75290;BME280;63883;48.996;20.804;2022-11-15T10:42:26;96613.44;;;4.55;80.84
75290;BME280;63883;48.996;20.804;2022-11-15T10:44:52;96606.75;;;4.53;80.41
75290;BME280;63883;48.996;20.804;2022-11-15T10:47:29;96602.47;;;4.62;79.48
75290;BME280;63883;48.996;20.804;2022-11-15T10:49:58;96596.63;;;4.60;80.26
75290;BME280;63883;48.996;20.804;2022-11-15T10:52:24;96601.66;;;4.60;80.41
75290;BME280;63883;48.996;20.804;2022-11-15T10:57:49;96588.28;;;4.28;82.19
75290;BME280;63883;48.996;20.804;2022-11-15T11:03:05;96583.19;;;4.43;82.26
75290;BME280;63883;48.996;20.804;2022-11-15T11:10:58;96571.47;;;4.30;83.21
75290;BME280;63883;48.996;20.804;2022-11-15T11:13:35;96568.88;;;4.41;83.27
75290;BME280;63883;48.996;20.804;2022-11-15T11:30:21;96531.56;;;4.99;82.50
75290;BME280;63883;48.996;20.804;2022-11-15T11:33:09;96534.16;;;4.84;81.60
75290;BME280;63883;48.996;20.804;2022-11-15T11:36:03;96522.38;;;4.83;81.15
75290;BME280;63883;48.996;20.804;2022-11-15T11:38:52;96515.59;;;4.91;80.96
75290;BME280;63883;48.996;20.804;2022-11-15T11:42:23;96510.53;;;4.95;81.00
75290;BME280;63883;48.996;20.804;2022-11-15T11:44:43;96503.00;;;4.89;81.30
75290;BME280;63883;48.996;20.804;2022-11-15T11:47:27;96508.06;;;4.83;81.73
75290;BME280;63883;48.996;20.804;2022-11-15T11:49:59;96509.75;;;4.86;81.74
75290;BME280;63883;48.996;20.804;2022-11-15T11:52:28;96511.47;;;4.78;82.50
75290;BME280;63883;48.996;20.804;2022-11-15T12:00:20;96498.78;;;4.87;82.50
75290;BME280;63883;48.996;20.804;2022-11-15T12:05:42;96489.47;;;4.95;81.62
75290;BME280;63883;48.996;20.804;2022-11-15T12:11:00;96487.75;;;5.00;82.27
75290;BME280;63883;48.996;20.804;2022-11-15T12:13:29;96486.91;;;4.99;82.31
75290;BME280;63883;48.996;20.804;2022-11-15T12:16:18;96469.25;;;4.96;83.23
75290;BME280;63883;48.996;20.804;2022-11-15T12:18:49;96462.47;;;5.00;83.01
75290;BME280;63883;48.996;20.804;2022-11-15T12:27:38;96459.88;;;5.09;83.07
75290;BME280;63883;48.996;20.804;2022-11-15T12:29:40;96455.66;;;5.09;82.98
75290;BME280;63883;48.996;20.804;2022-11-15T12:32:29;96455.59;;;5.19;82.42
75290;BME280;63883;48.996;20.804;2022-11-15T12:34:56;96445.44;;;5.20;83.11
75290;BME280;63883;48.996;20.804;2022-11-15T12:40:23;96450.44;;;5.31;82.66
75290;BME280;63883;48.996;20.804;2022-11-15T12:45:42;96441.84;;;5.47;82.84
75290;BME280;63883;48.996;20.804;2022-11-15T12:58:47;96427.34;;;5.63;81.52
75290;BME280;63883;48.996;20.804;2022-11-15T13:06:58;96411.53;;;5.42;83.07
75290;BME280;63883;48.996;20.804;2022-11-15T13:14:56;96409.91;;;5.37;83.77
75290;BME280;63883;48.996;20.804;2022-11-15T13:17:23;96416.56;;;5.47;82.74
75290;BME280;63883;48.996;20.804;2022-11-15T13:22:46;96412.22;;;5.60;82.24
75290;BME280;63883;48.996;20.804;2022-11-15T13:27:56;96408.91;;;5.53;82.69
75290;BME280;63883;48.996;20.804;2022-11-15T13:30:30;96401.34;;;5.48;82.73
75290;BME280;63883;48.996;20.804;2022-11-15T13:32:58;96390.38;;;5.49;82.77
75290;BME280;63883;48.996;20.804;2022-11-15T13:35:28;96400.41;;;5.57;82.94
75290;BME280;63883;48.996;20.804;2022-11-15T13:37:55;96399.47;;;5.67;82.07
75290;BME280;63883;48.996;20.804;2022-11-15T13:40:29;96391.97;;;5.60;81.93
75290;BME280;63883;48.996;20.804;2022-11-15T13:42:59;96384.53;;;5.46;82.54
75290;BME280;63883;48.996;20.804;2022-11-15T13:45:25;96385.41;;;5.42;83.44
75290;BME280;63883;48.996;20.804;2022-11-15T13:47:56;96376.91;;;5.47;83.23
75290;BME280;63883;48.996;20.804;2022-11-15T13:50:29;96377.66;;;5.56;83.00
75290;BME280;63883;48.996;20.804;2022-11-15T13:52:58;96377.72;;;5.54;82.76
75290;BME280;63883;48.996;20.804;2022-11-15T13:55:27;96382.59;;;5.68;82.30
75290;BME280;63883;48.996;20.804;2022-11-15T13:57:58;96378.31;;;5.76;81.20
75290;BME280;63883;48.996;20.804;2022-11-15T14:02:56;96385.06;;;5.74;81.09
75290;BME280;63883;48.996;20.804;2022-11-15T14:05:26;96371.56;;;5.73;81.52
75290;BME280;63883;48.996;20.804;2022-11-15T14:08:03;96374.94;;;5.75;82.13
75290;BME280;63883;48.996;20.804;2022-11-15T14:10:37;96371.56;;;5.75;81.91
75290;BME280;63883;48.996;20.804;2022-11-15T14:13:09;96371.44;;;5.84;81.83
75290;BME280;63883;48.996;20.804;2022-11-15T14:15:38;96362.22;;;5.80;82.17
75290;BME280;63883;48.996;20.804;2022-11-15T14:18:05;96369.72;;;5.89;80.97
75290;BME280;63883;48.996;20.804;2022-11-15T14:20:37;96366.53;;;5.70;82.07
75290;BME280;63883;48.996;20.804;2022-11-15T14:23:39;96357.41;;;5.57;82.91
75290;BME280;63883;48.996;20.804;2022-11-15T14:26:05;96359.97;;;5.56;82.84
75290;BME280;63883;48.996;20.804;2022-11-15T14:28:33;96364.19;;;5.55;82.63
75290;BME280;63883;48.996;20.804;2022-11-15T14:31:10;96357.59;;;5.40;83.24
75290;BME280;63883;48.996;20.804;2022-11-15T14:33:37;96342.56;;;5.27;84.11
75290;BME280;63883;48.996;20.804;2022-11-15T14:36:20;96339.09;;;5.37;83.82
75290;BME280;63883;48.996;20.804;2022-11-15T14:38:47;96338.28;;;5.36;84.02
75290;BME280;63883;48.996;20.804;2022-11-15T14:41:23;96337.25;;;5.51;83.09
75290;BME280;63883;48.996;20.804;2022-11-15T14:43:50;96333.13;;;5.45;83.48
75290;BME280;63883;48.996;20.804;2022-11-15T14:46:17;96342.41;;;5.43;83.60
75290;BME280;63883;48.996;20.804;2022-11-15T14:48:43;96336.56;;;5.38;83.62
75290;BME280;63883;48.996;20.804;2022-11-15T14:51:12;96331.44;;;5.44;83.55
75290;BME280;63883;48.996;20.804;2022-11-15T14:53:38;96326.38;;;5.46;83.44
75290;BME280;63883;48.996;20.804;2022-11-15T14:56:04;96328.91;;;5.44;83.31
75290;BME280;63883;48.996;20.804;2022-11-15T14:58:29;96331.50;;;5.40;83.65
75290;BME280;63883;48.996;20.804;2022-11-15T15:00:55;96328.97;;;5.40;83.89
75290;BME280;63883;48.996;20.804;2022-11-15T15:03:20;96331.59;;;5.32;84.20
75290;BME280;63883;48.996;20.804;2022-11-15T15:05:46;96324.84;;;5.31;84.47
75290;BME280;63883;48.996;20.804;2022-11-15T15:08:12;96314.75;;;5.30;84.76